Time;durP1;ratioP1;P1;durP2;ratioP2;P2;SDS_P1;SDS_P2;PMS_P1;PMS_P2;Temp;Humidity;BMP_temperature;BMP_pressure;BME280_temperature;BME280_humidity;BME280_pressure;Samples;Min_cycle;Max_cycle;Signal;HPM_P1;HPM_P2
2023/02/13 00:01:53;;;;;;;;;;;;;;;3.03;nan;102593.91;5061430;28;19917;-85
2023/02/13 00:04:18;;;;;;;;;;;;;;;3.02;nan;102593.94;5050588;28;20433;-86
2023/02/13 00:06:46;;;;;;;;;;;;;;;3.00;nan;102582.69;5068357;28;20396;-85
2023/02/13 00:09:11;;;;;;;;;;;;;;;2.98;nan;102588.84;5070804;28;19964;-86
2023/02/13 00:11:36;;;;;;;;;;;;;;;2.96;nan;102585.41;5076416;28;19917;-85
2023/02/13 00:14:02;;;;;;;;;;;;;;;2.95;nan;102581.09;5082840;28;19916;-84
2023/02/13 00:16:27;;;;;;;;;;;;;;;2.96;nan;102592.41;5084303;28;19956;-85
2023/02/13 00:18:52;;;;;;;;;;;;;;;3.01;nan;102585.25;5069733;28;19931;-85
2023/02/13 00:21:17;;;;;;;;;;;;;;;2.99;nan;102579.22;5064795;28;19936;-86
2023/02/13 00:23:43;;;;;;;;;;;;;;;2.99;nan;102581.84;5062987;28;19921;-86
2023/02/13 00:26:10;;;;;;;;;;;;;;;3.01;nan;102574.81;5068573;28;19985;-85
2023/02/13 00:28:35;;;;;;;;;;;;;;;3.08;nan;102576.31;5060418;28;20529;-85
2023/02/13 00:31:05;;;;;;;;;;;;;;;3.07;nan;102582.44;5059085;28;19959;-87
2023/02/13 00:33:30;;;;;;;;;;;;;;;3.06;nan;102578.13;5056573;28;19921;-87
2023/02/13 00:36:09;;;;;;;;;;;;;;;3.01;nan;102569.59;5061577;28;19920;-88
2023/02/13 00:38:36;;;;;;;;;;;;;;;2.93;nan;102582.03;5053196;28;20382;-87
2023/02/13 00:41:01;;;;;;;;;;;;;;;2.82;nan;102578.97;5059447;28;19925;-86
2023/02/13 00:43:27;;;;;;;;;;;;;;;2.64;nan;102578.63;5059299;28;19936;-86
2023/02/13 00:45:52;;;;;;;;;;;;;;;2.54;nan;102572.00;5046757;28;19917;-86
2023/02/13 00:48:17;;;;;;;;;;;;;;;2.39;nan;102575.13;5053998;28;19995;-86
2023/02/13 00:50:42;;;;;;;;;;;;;;;2.24;nan;102573.81;5061601;28;19921;-87
2023/02/13 00:53:08;;;;;;;;;;;;;;;2.19;nan;102575.72;5049156;28;19917;-86
2023/02/13 00:55:34;;;;;;;;;;;;;;;2.14;nan;102573.25;5056091;28;19916;-86
2023/02/13 00:57:59;;;;;;;;;;;;;;;2.08;nan;102576.06;5061804;28;19971;-86
2023/02/13 01:00:25;;;;;;;;;;;;;;;2.04;nan;102580.50;5054366;28;19916;-86
2023/02/13 01:02:50;;;;;;;;;;;;;;;2.01;nan;102574.53;5053569;28;19921;-86
2023/02/13 01:05:15;;;;;;;;;;;;;;;1.98;nan;102578.09;5062887;28;20567;-86
2023/02/13 01:07:40;;;;;;;;;;;;;;;1.92;nan;102579.13;5061106;28;19917;-86
2023/02/13 01:10:06;;;;;;;;;;;;;;;1.91;nan;102576.56;5050399;28;19927;-86
2023/02/13 01:12:31;;;;;;;;;;;;;;;1.87;nan;102580.16;5053206;28;19963;-86
2023/02/13 01:14:56;;;;;;;;;;;;;;;1.79;nan;102583.00;5066129;28;20532;-86
2023/02/13 01:17:21;;;;;;;;;;;;;;;1.74;nan;102579.69;5058118;28;19924;-86
2023/02/13 01:19:47;;;;;;;;;;;;;;;1.66;nan;102573.81;5048275;28;19917;-85
2023/02/13 01:22:12;;;;;;;;;;;;;;;1.63;nan;102579.97;5059743;28;20039;-84
2023/02/13 01:24:37;;;;;;;;;;;;;;;1.59;nan;102575.75;5051816;28;19925;-86
2023/02/13 01:27:02;;;;;;;;;;;;;;;1.53;nan;102581.16;5054044;28;19920;-85
2023/02/13 01:29:28;;;;;;;;;;;;;;;1.46;nan;102580.44;5051544;28;20566;-85
2023/02/13 01:31:53;;;;;;;;;;;;;;;1.37;nan;102578.09;5066797;28;19917;-86
2023/02/13 01:34:18;;;;;;;;;;;;;;;1.28;nan;102578.34;5053295;28;19921;-86
2023/02/13 01:36:43;;;;;;;;;;;;;;;1.24;nan;102581.91;5059266;28;20015;-85
2023/02/13 01:39:10;;;;;;;;;;;;;;;1.23;nan;102581.06;5058138;28;20436;-85
2023/02/13 01:41:35;;;;;;;;;;;;;;;1.28;nan;102581.78;5059457;28;19920;-86
2023/02/13 01:44:01;;;;;;;;;;;;;;;1.29;nan;102577.47;5063470;28;19987;-84
2023/02/13 01:46:29;;;;;;;;;;;;;;;1.25;nan;102579.28;5070327;28;19927;-85
2023/02/13 01:48:58;;;;;;;;;;;;;;;1.20;nan;102575.09;5048969;28;20393;-85
2023/02/13 01:51:25;;;;;;;;;;;;;;;1.15;nan;102571.75;5056924;28;19923;-84
2023/02/13 01:53:57;;;;;;;;;;;;;;;1.19;nan;102575.97;5060650;28;19923;-85
2023/02/13 01:56:27;;;;;;;;;;;;;;;1.26;nan;102577.53;5063245;28;19932;-86
2023/02/13 01:58:55;;;;;;;;;;;;;;;1.30;nan;102573.94;5054617;28;19921;-85
2023/02/13 02:01:21;;;;;;;;;;;;;;;1.30;nan;102573.09;5058563;28;19921;-85
2023/02/13 02:03:56;;;;;;;;;;;;;;;1.28;nan;102565.31;5053803;28;20385;-87
2023/02/13 02:06:29;;;;;;;;;;;;;;;1.29;nan;102572.25;5058040;28;19927;-86
2023/02/13 02:08:56;;;;;;;;;;;;;;;1.31;nan;102569.56;5051360;28;19946;-86
2023/02/13 02:11:30;;;;;;;;;;;;;;;1.35;nan;102571.22;5060901;28;20408;-85
2023/02/13 02:13:56;;;;;;;;;;;;;;;1.33;nan;102563.44;5068252;28;19917;-82
2023/02/13 02:16:21;;;;;;;;;;;;;;;1.33;nan;102568.63;5058388;28;19952;-85
2023/02/13 02:18:47;;;;;;;;;;;;;;;1.36;nan;102565.97;5044692;28;19917;-86
2023/02/13 02:21:21;;;;;;;;;;;;;;;1.36;nan;102573.78;5058924;28;19920;-86
2023/02/13 02:24:05;;;;;;;;;;;;;;;1.42;nan;102570.16;5061055;28;19928;-84
2023/02/13 02:26:36;;;;;;;;;;;;;;;1.46;nan;102569.16;5064529;28;19948;-84
2023/02/13 02:29:14;;;;;;;;;;;;;;;1.45;nan;102560.50;5058336;28;19921;-85
2023/02/13 02:31:39;;;;;;;;;;;;;;;1.48;nan;102557.81;5050689;28;19928;-85
2023/02/13 02:34:11;;;;;;;;;;;;;;;1.45;nan;102557.91;5059301;28;19920;-84
2023/02/13 02:36:56;;;;;;;;;;;;;;;1.40;nan;102562.34;5060091;28;19921;-85
2023/02/13 02:39:40;;;;;;;;;;;;;;;1.33;nan;102560.81;5013602;28;19921;-85
2023/02/13 02:42:15;;;;;;;;;;;;;;;1.25;nan;102560.19;5058517;28;19921;-84
2023/02/13 02:44:44;;;;;;;;;;;;;;;1.18;nan;102563.84;5055067;28;19928;-87
2023/02/13 02:50:10;;;;;;;;;;;;;;;1.10;nan;102560.56;5065103;28;19928;-83
2023/02/13 02:52:42;;;;;;;;;;;;;;;1.08;nan;102567.59;5061990;28;19974;-85
2023/02/13 02:55:25;;;;;;;;;;;;;;;1.08;nan;102570.22;5065227;28;20437;-84
2023/02/13 03:06:29;;;;;;;;;;;;;;;1.52;nan;102561.16;5052980;28;19924;-87
2023/02/13 03:14:28;;;;;;;;;;;;;;;1.63;nan;102572.16;5059766;28;19939;-86
2023/02/13 03:22:31;;;;;;;;;;;;;;;1.97;nan;102568.56;5050897;28;19939;-87
2023/02/13 03:25:17;;;;;;;;;;;;;;;2.04;nan;102566.63;5042560;28;19920;-87
2023/02/13 03:30:42;;;;;;;;;;;;;;;2.17;nan;102567.97;5060260;28;19924;-87
2023/02/13 03:33:24;;;;;;;;;;;;;;;2.27;nan;102579.81;5069250;28;19920;-87
2023/02/13 03:39:04;;;;;;;;;;;;;;;2.42;nan;102585.47;5065482;28;19923;-86
2023/02/13 03:41:35;;;;;;;;;;;;;;;2.45;nan;102587.97;5072365;28;19921;-88
2023/02/13 03:44:08;;;;;;;;;;;;;;;2.44;nan;102588.88;5063240;28;20233;-87
2023/02/13 03:46:36;;;;;;;;;;;;;;;2.36;nan;102581.31;5060449;28;19921;-87
2023/02/13 03:51:55;;;;;;;;;;;;;;;2.17;nan;102588.84;5075496;28;20015;-86
2023/02/13 03:59:51;;;;;;;;;;;;;;;1.93;nan;102587.78;5070358;28;20404;-87
2023/02/13 04:02:20;;;;;;;;;;;;;;;1.86;nan;102594.97;5081675;28;19917;-87
2023/02/13 04:04:51;;;;;;;;;;;;;;;1.76;nan;102582.22;5078356;28;19920;-87
2023/02/13 04:07:31;;;;;;;;;;;;;;;1.65;nan;102583.41;5077367;28;19928;-87
2023/02/13 04:10:23;;;;;;;;;;;;;;;1.60;nan;102590.50;5077584;28;19928;-87
2023/02/13 04:12:51;;;;;;;;;;;;;;;1.49;nan;102585.56;5074883;28;19908;-87
2023/02/13 04:15:35;;;;;;;;;;;;;;;1.41;nan;102582.34;5077374;28;19935;-87
2023/02/13 04:18:06;;;;;;;;;;;;;;;1.33;nan;102584.28;5064727;28;19923;-86
2023/02/13 04:20:31;;;;;;;;;;;;;;;1.23;nan;102588.03;5060278;28;19921;-87
2023/02/13 04:22:56;;;;;;;;;;;;;;;1.17;nan;102599.47;5066028;28;20011;-86
2023/02/13 04:25:22;;;;;;;;;;;;;;;1.09;nan;102590.16;5056249;28;19925;-86
2023/02/13 04:27:47;;;;;;;;;;;;;;;0.99;nan;102597.34;5053517;28;19917;-86
2023/02/13 04:30:12;;;;;;;;;;;;;;;0.89;nan;102593.28;5063267;28;20405;-86
2023/02/13 04:32:38;;;;;;;;;;;;;;;0.83;nan;102599.47;5060404;28;20393;-86
2023/02/13 04:35:03;;;;;;;;;;;;;;;0.75;nan;102598.81;5073562;28;19924;-86
2023/02/13 04:37:28;;;;;;;;;;;;;;;0.69;nan;102596.34;5065059;28;19916;-86
2023/02/13 04:39:53;;;;;;;;;;;;;;;0.65;nan;102589.53;5055948;28;19959;-86
2023/02/13 04:42:19;;;;;;;;;;;;;;;0.59;nan;102595.72;5037599;28;19923;-86
2023/02/13 04:44:44;;;;;;;;;;;;;;;0.51;nan;102588.09;5056533;28;19936;-87
2023/02/13 04:47:09;;;;;;;;;;;;;;;0.47;nan;102591.66;5050262;28;19924;-86
2023/02/13 04:49:34;;;;;;;;;;;;;;;0.41;nan;102595.25;5064026;28;19924;-88
2023/02/13 04:51:59;;;;;;;;;;;;;;;0.38;nan;102586.66;5062835;28;19967;-86
2023/02/13 04:54:25;;;;;;;;;;;;;;;0.31;nan;102578.16;5051861;28;19940;-87
2023/02/13 04:56:50;;;;;;;;;;;;;;;0.26;nan;102585.19;5068682;28;19960;-87
2023/02/13 04:59:15;;;;;;;;;;;;;;;0.18;nan;102580.16;5059580;28;20425;-87
2023/02/13 05:01:40;;;;;;;;;;;;;;;0.13;nan;102578.56;5062835;28;20310;-87
2023/02/13 05:04:06;;;;;;;;;;;;;;;0.08;nan;102583.00;5054054;28;19931;-86
2023/02/13 05:06:31;;;;;;;;;;;;;;;0.01;nan;102584.03;5054319;28;19966;-87
2023/02/13 05:08:56;;;;;;;;;;;;;;;0.12;nan;102593.31;5050195;28;19917;-87
2023/02/13 05:11:21;;;;;;;;;;;;;;;0.38;nan;102581.44;5055692;28;20021;-87
2023/02/13 05:13:47;;;;;;;;;;;;;;;0.58;nan;102589.66;5069681;28;19939;-87
2023/02/13 05:16:12;;;;;;;;;;;;;;;0.69;nan;102589.41;5060884;28;19952;-88
2023/02/13 05:18:37;;;;;;;;;;;;;;;0.72;nan;102580.66;5055656;28;19921;-87
2023/02/13 05:23:46;;;;;;;;;;;;;;;1.02;nan;102581.63;5057992;28;19943;-87
2023/02/13 05:26:12;;;;;;;;;;;;;;;1.18;nan;102588.16;5048905;28;19999;-87
2023/02/13 05:31:21;;;;;;;;;;;;;;;1.22;nan;102576.75;5052754;28;19943;-87
2023/02/13 05:33:46;;;;;;;;;;;;;;;1.14;nan;102593.47;5056471;28;20377;-87
2023/02/13 05:36:11;;;;;;;;;;;;;;;1.05;nan;102595.44;5057246;28;19924;-87
2023/02/13 05:38:37;;;;;;;;;;;;;;;0.99;nan;102589.53;5052855;28;19913;-87
2023/02/13 05:41:02;;;;;;;;;;;;;;;0.90;nan;102589.75;5056357;28;19923;-88
2023/02/13 05:43:28;;;;;;;;;;;;;;;0.80;nan;102581.31;5052330;28;19924;-88
2023/02/13 05:46:01;;;;;;;;;;;;;;;0.71;nan;102587.59;5060280;28;19939;-88
2023/02/13 05:48:26;;;;;;;;;;;;;;;0.65;nan;102585.16;5048018;28;19917;-87
2023/02/13 05:50:52;;;;;;;;;;;;;;;0.62;nan;102575.69;5058675;28;19925;-88
2023/02/13 05:53:17;;;;;;;;;;;;;;;0.59;nan;102575.75;5042283;28;19928;-88
2023/02/13 05:55:42;;;;;;;;;;;;;;;0.57;nan;102574.94;5060588;28;19928;-87
2023/02/13 05:58:08;;;;;;;;;;;;;;;0.58;nan;102576.66;5065428;28;20293;-88
2023/02/13 06:00:33;;;;;;;;;;;;;;;0.57;nan;102577.56;5055990;28;19916;-89
2023/02/13 06:02:58;;;;;;;;;;;;;;;0.54;nan;102582.81;5065224;28;20328;-88
2023/02/13 06:05:24;;;;;;;;;;;;;;;0.56;nan;102585.38;5069802;28;19967;-87
2023/02/13 06:07:49;;;;;;;;;;;;;;;0.51;nan;102585.50;5057769;28;19940;-87
2023/02/13 06:10:14;;;;;;;;;;;;;;;0.53;nan;102588.06;5052335;28;19923;-87
2023/02/13 06:12:41;;;;;;;;;;;;;;;0.48;nan;102588.19;5060230;28;19917;-87
2023/02/13 06:15:06;;;;;;;;;;;;;;;0.37;nan;102593.63;5062136;28;19921;-87
2023/02/13 06:17:32;;;;;;;;;;;;;;;0.26;nan;102586.94;5051303;28;19943;-87
2023/02/13 06:19:57;;;;;;;;;;;;;;;0.14;nan;102594.16;5054729;28;19921;-87
2023/02/13 06:22:22;;;;;;;;;;;;;;;0.10;nan;102595.09;5055995;28;20474;-88
2023/02/13 06:24:47;;;;;;;;;;;;;;;0.09;nan;102592.53;5047418;28;19920;-87
2023/02/13 06:27:12;;;;;;;;;;;;;;;0.07;nan;102595.19;5044752;28;19940;-87
2023/02/13 06:29:38;;;;;;;;;;;;;;;0.07;nan;102592.56;5054889;28;20297;-87
2023/02/13 06:32:04;;;;;;;;;;;;;;;0.11;nan;102594.19;5058384;28;19917;-87
2023/02/13 06:34:29;;;;;;;;;;;;;;;0.15;nan;102595.00;5059852;28;19956;-88
2023/02/13 06:36:54;;;;;;;;;;;;;;;0.15;nan;102595.84;5057762;28;20438;-88
2023/02/13 06:39:20;;;;;;;;;;;;;;;0.12;nan;102593.31;5058865;28;19921;-87
2023/02/13 06:41:45;;;;;;;;;;;;;;;0.09;nan;102590.75;5055628;28;19928;-88
2023/02/13 06:44:11;;;;;;;;;;;;;;;0.07;nan;102591.69;5057295;28;20321;-87
2023/02/13 06:46:36;;;;;;;;;;;;;;;0.04;nan;102594.38;5058423;28;20386;-86
2023/02/13 06:49:02;;;;;;;;;;;;;;;0.02;nan;102593.53;5061734;28;19924;-86
2023/02/13 06:51:27;;;;;;;;;;;;;;;0.00;nan;102596.19;5053648;28;20745;-85
2023/02/13 06:53:52;;;;;;;;;;;;;;;-0.01;nan;102602.28;5042735;28;20012;-87
2023/02/13 06:56:18;;;;;;;;;;;;;;;-0.04;nan;102600.59;5054530;28;19916;-86
2023/02/13 06:58:43;;;;;;;;;;;;;;;-0.06;nan;102604.13;5046491;28;19947;-87
2023/02/13 07:01:08;;;;;;;;;;;;;;;-0.08;nan;102608.50;5056228;28;19924;-87
2023/02/13 07:03:33;;;;;;;;;;;;;;;-0.10;nan;102610.25;5052421;28;20321;-86
2023/02/13 07:05:58;;;;;;;;;;;;;;;-0.10;nan;102610.25;5058077;28;19924;-87
2023/02/13 07:08:24;;;;;;;;;;;;;;;-0.10;nan;102605.06;5045039;28;19921;-87
2023/02/13 07:10:49;;;;;;;;;;;;;;;-0.11;nan;102613.75;5050517;28;19944;-86
2023/02/13 07:13:17;;;;;;;;;;;;;;;-0.10;nan;102611.09;5042972;28;20196;-87
2023/02/13 07:15:43;;;;;;;;;;;;;;;-0.09;nan;102617.19;5056723;28;19921;-87
2023/02/13 07:18:08;;;;;;;;;;;;;;;-0.05;nan;102611.91;5051586;28;19917;-86
2023/02/13 07:20:34;;;;;;;;;;;;;;;0.00;nan;102611.81;5059967;28;19928;-87
2023/02/13 07:23:00;;;;;;;;;;;;;;;0.05;nan;102619.47;5059845;28;19917;-85
2023/02/13 07:25:26;;;;;;;;;;;;;;;0.09;nan;102629.78;5059030;28;19927;-87
2023/02/13 07:27:51;;;;;;;;;;;;;;;0.20;nan;102611.34;5050184;28;19916;-87
2023/02/13 07:30:16;;;;;;;;;;;;;;;0.26;nan;102615.56;5066752;28;19904;-86
2023/02/13 07:32:41;;;;;;;;;;;;;;;0.34;nan;102621.47;5059201;28;19948;-87
2023/02/13 07:35:07;;;;;;;;;;;;;;;0.38;nan;102616.16;5052532;28;20390;-87
2023/02/13 07:37:32;;;;;;;;;;;;;;;0.49;nan;102615.91;5048481;28;19987;-87
2023/02/13 07:39:57;;;;;;;;;;;;;;;0.56;nan;102609.66;5052453;28;19916;-87
2023/02/13 07:42:22;;;;;;;;;;;;;;;0.65;nan;102616.41;5033552;28;20363;-87
2023/02/13 07:44:48;;;;;;;;;;;;;;;0.73;nan;102627.47;5049834;28;19921;-86
2023/02/13 07:47:13;;;;;;;;;;;;;;;0.81;nan;102616.88;5068777;28;19920;-87
2023/02/13 07:49:38;;;;;;;;;;;;;;;0.90;nan;102629.69;5058246;28;20420;-86
2023/02/13 07:52:04;;;;;;;;;;;;;;;0.97;nan;102627.78;5057791;28;19966;-87
2023/02/13 07:54:30;;;;;;;;;;;;;;;1.03;nan;102623.28;5058561;28;19966;-87
2023/02/13 07:56:55;;;;;;;;;;;;;;;1.12;nan;102622.22;5049728;28;19920;-86
2023/02/13 07:59:20;;;;;;;;;;;;;;;1.22;nan;102626.28;5057663;28;19969;-86
2023/02/13 08:01:46;;;;;;;;;;;;;;;1.34;nan;102629.47;5052983;28;19975;-85
2023/02/13 08:04:11;;;;;;;;;;;;;;;1.43;nan;102627.47;5038555;28;20008;-86
2023/02/13 08:06:40;;;;;;;;;;;;;;;1.55;nan;102625.41;5042237;28;19925;-86
2023/02/13 08:11:54;;;;;;;;;;;;;;;1.68;nan;102617.19;5058579;28;19927;-86
2023/02/13 08:14:22;;;;;;;;;;;;;;;1.81;nan;102622.06;5050590;28;19917;-86
2023/02/13 08:16:48;;;;;;;;;;;;;;;1.94;nan;102614.78;5041132;28;20391;-87
2023/02/13 08:19:13;;;;;;;;;;;;;;;2.10;nan;102619.50;5056061;28;19939;-86
2023/02/13 08:21:39;;;;;;;;;;;;;;;2.28;nan;102618.06;5044929;28;19940;-87
2023/02/13 08:24:05;;;;;;;;;;;;;;;2.41;nan;102625.50;5060918;28;19920;-87
2023/02/13 08:26:31;;;;;;;;;;;;;;;2.50;nan;102623.50;5066806;28;19920;-87
2023/02/13 08:28:56;;;;;;;;;;;;;;;2.58;nan;102619.78;5064942;28;19956;-85
2023/02/13 08:31:21;;;;;;;;;;;;;;;2.65;nan;102626.53;5058305;28;19921;-87
2023/02/13 08:33:46;;;;;;;;;;;;;;;2.71;nan;102624.56;5056450;28;19932;-87
2023/02/13 08:36:12;;;;;;;;;;;;;;;2.75;nan;102627.94;5046931;28;19917;-86
2023/02/13 08:38:37;;;;;;;;;;;;;;;2.82;nan;102629.44;5056594;28;19918;-86
2023/02/13 08:41:02;;;;;;;;;;;;;;;2.94;nan;102625.56;5056150;28;19920;-85
2023/02/13 08:43:27;;;;;;;;;;;;;;;3.00;nan;102633.19;5055774;28;20003;-86
2023/02/13 08:45:53;;;;;;;;;;;;;;;3.08;nan;102620.75;5044507;28;20358;-86
2023/02/13 08:48:18;;;;;;;;;;;;;;;3.18;nan;102627.34;5050684;28;19974;-85
2023/02/13 08:50:43;;;;;;;;;;;;;;;3.30;nan;102622.63;5049910;28;19936;-86
2023/02/13 08:53:08;;;;;;;;;;;;;;;3.40;nan;102622.22;5055937;28;20370;-86
2023/02/13 08:55:33;;;;;;;;;;;;;;;3.47;nan;102615.03;5060544;28;19916;-85
2023/02/13 08:58:02;;;;;;;;;;;;;;;3.54;nan;102616.53;5045863;28;20028;-85
2023/02/13 09:00:28;;;;;;;;;;;;;;;3.65;nan;102617.88;5050562;28;19925;-86
2023/02/13 09:02:53;;;;;;;;;;;;;;;3.72;nan;102611.53;5046287;28;20405;-85
2023/02/13 09:05:18;;;;;;;;;;;;;;;3.79;nan;102613.88;5043179;28;20397;-84
2023/02/13 09:07:44;;;;;;;;;;;;;;;3.87;nan;102618.81;5054479;28;19924;-85
2023/02/13 09:10:09;;;;;;;;;;;;;;;3.94;nan;102622.06;5053897;28;19983;-85
2023/02/13 09:12:34;;;;;;;;;;;;;;;4.02;nan;102620.84;5036592;28;20032;-85
2023/02/13 09:15:00;;;;;;;;;;;;;;;4.10;nan;102609.25;5040752;28;19971;-85
2023/02/13 09:17:25;;;;;;;;;;;;;;;4.26;nan;102612.97;5035700;28;20015;-85
2023/02/13 09:19:50;;;;;;;;;;;;;;;4.49;nan;102608.63;5053229;28;19917;-85
2023/02/13 09:22:16;;;;;;;;;;;;;;;4.58;nan;102613.50;5041643;28;19925;-85
2023/02/13 09:24:41;;;;;;;;;;;;;;;4.63;nan;102611.53;5046658;28;20008;-85
2023/02/13 09:27:07;;;;;;;;;;;;;;;4.72;nan;102621.66;5050393;28;19920;-85
2023/02/13 09:29:32;;;;;;;;;;;;;;;4.81;nan;102613.38;5054045;28;19925;-85
2023/02/13 09:31:58;;;;;;;;;;;;;;;4.88;nan;102614.84;5044609;28;19917;-85
2023/02/13 09:34:23;;;;;;;;;;;;;;;4.99;nan;102610.94;5044244;28;21029;-85
2023/02/13 09:36:52;;;;;;;;;;;;;;;5.13;nan;102610.38;5034053;28;19924;-85
2023/02/13 09:39:17;;;;;;;;;;;;;;;5.22;nan;102615.19;5049486;28;20050;-86
2023/02/13 09:41:44;;;;;;;;;;;;;;;5.32;nan;102614.75;5033281;28;20359;-85
2023/02/13 09:44:32;;;;;;;;;;;;;;;5.37;nan;102613.69;5046460;28;20031;-85
2023/02/13 09:46:59;;;;;;;;;;;;;;;5.47;nan;102620.25;5032539;28;19995;-85
2023/02/13 09:49:27;;;;;;;;;;;;;;;5.51;nan;102620.03;5043815;28;19940;-85
2023/02/13 09:51:55;;;;;;;;;;;;;;;5.57;nan;102620.69;5056063;28;20370;-85
2023/02/13 09:54:20;;;;;;;;;;;;;;;5.58;nan;102627.63;5063347;28;19923;-85
2023/02/13 09:57:06;;;;;;;;;;;;;;;5.62;nan;102632.69;5047862;28;20337;-85
2023/02/13 09:59:41;;;;;;;;;;;;;;;5.67;nan;102622.84;5047895;28;19917;-86
2023/02/13 10:02:18;;;;;;;;;;;;;;;5.78;nan;102624.97;5049783;28;19921;-87
2023/02/13 10:04:51;;;;;;;;;;;;;;;5.84;nan;102626.47;5034216;28;19925;-85
2023/02/13 10:07:34;;;;;;;;;;;;;;;5.91;nan;102628.78;5050348;28;19967;-86
2023/02/13 10:10:04;;;;;;;;;;;;;;;6.04;nan;102626.47;5042951;28;20004;-86
2023/02/13 10:12:37;;;;;;;;;;;;;;;6.19;nan;102626.66;5043133;28;19925;-85
2023/02/13 10:15:15;;;;;;;;;;;;;;;6.31;nan;102623.47;5025339;28;20019;-86
2023/02/13 10:17:44;;;;;;;;;;;;;;;6.41;nan;102623.88;5042094;28;19921;-85
2023/02/13 10:20:23;;;;;;;;;;;;;;;6.53;nan;102616.28;5038536;28;19971;-86
2023/02/13 10:22:52;;;;;;;;;;;;;;;6.57;nan;102616.97;5044224;28;20315;-86
2023/02/13 10:25:17;;;;;;;;;;;;;;;6.68;nan;102608.56;5053672;28;19931;-86
2023/02/13 10:27:45;;;;;;;;;;;;;;;6.70;nan;102614.59;5051222;28;20520;-86
2023/02/13 10:30:36;;;;;;;;;;;;;;;6.79;nan;102603.59;5053396;28;19916;-85
2023/02/13 10:33:18;;;;;;;;;;;;;;;6.91;nan;102617.94;5029247;28;19927;-86
2023/02/13 10:35:46;;;;;;;;;;;;;;;6.94;nan;102605.50;5051196;28;20282;-86
2023/02/13 10:38:14;;;;;;;;;;;;;;;6.98;nan;102609.69;5034219;28;19976;-86
2023/02/13 10:40:42;;;;;;;;;;;;;;;6.99;nan;102606.09;5057224;28;19927;-86
2023/02/13 10:43:08;;;;;;;;;;;;;;;7.08;nan;102609.19;5058745;28;19969;-86
2023/02/13 10:45:34;;;;;;;;;;;;;;;7.17;nan;102598.19;5045987;28;19921;-86
2023/02/13 10:48:05;;;;;;;;;;;;;;;7.32;nan;102604.47;5045428;28;20152;-86
2023/02/13 10:50:39;;;;;;;;;;;;;;;7.33;nan;102599.09;5052081;28;20000;-86
2023/02/13 10:53:04;;;;;;;;;;;;;;;7.41;nan;102596.94;5040436;28;19966;-86
2023/02/13 10:55:32;;;;;;;;;;;;;;;7.53;nan;102592.81;5047510;28;19917;-86
2023/02/13 10:57:57;;;;;;;;;;;;;;;8.05;nan;102597.88;5052219;28;20040;-86
2023/02/13 11:00:46;;;;;;;;;;;;;;;9.52;nan;102598.22;5049740;28;19956;-86
2023/02/13 11:03:19;;;;;;;;;;;;;;;12.02;nan;102599.34;5046921;28;19917;-86
2023/02/13 11:05:44;;;;;;;;;;;;;;;13.79;nan;102589.50;5046176;28;19917;-87
2023/02/13 11:08:16;;;;;;;;;;;;;;;15.73;nan;102587.53;5046537;28;20294;-87
2023/02/13 11:10:42;;;;;;;;;;;;;;;17.04;nan;102586.38;5038400;28;20451;-87
2023/02/13 11:13:18;;;;;;;;;;;;;;;18.36;nan;102582.53;5046222;28;19917;-86
2023/02/13 11:15:54;;;;;;;;;;;;;;;19.49;nan;102582.69;5040275;28;19917;-84
2023/02/13 11:18:21;;;;;;;;;;;;;;;20.45;nan;102576.94;5037071;28;19917;-87
2023/02/13 11:20:49;;;;;;;;;;;;;;;20.89;nan;102576.63;5048902;28;19924;-88
2023/02/13 11:23:17;;;;;;;;;;;;;;;21.16;nan;102566.47;5050456;28;20378;-84
2023/02/13 11:25:54;;;;;;;;;;;;;;;21.61;nan;102582.00;5041545;28;19966;-85
2023/02/13 11:28:20;;;;;;;;;;;;;;;22.14;nan;102574.13;5042000;28;19921;-85
2023/02/13 11:30:46;;;;;;;9.65;7.35;;;;;;;22.37;nan;102571.47;5046687;28;20344;-85
2023/02/13 11:33:15;;;;;;;7.10;5.70;;;;;;;22.13;nan;102568.94;5060190;28;20044;-87
2023/02/13 11:35:40;;;;;;;5.47;4.45;;;;;;;21.69;nan;102569.50;5050585;28;20037;-87
2023/02/13 11:38:09;;;;;;;8.07;6.18;;;;;;;21.09;nan;102560.94;5042958;28;20099;-87
2023/02/13 11:40:35;;;;;;;7.68;6.03;;;;;;;20.21;nan;102558.09;5041333;28;20570;-87
2023/02/13 11:43:00;;;;;;;7.43;6.13;;;;;;;19.53;nan;102562.59;5037550;28;20037;-87
2023/02/13 11:45:26;;;;;;;8.80;7.30;;;;;;;19.13;nan;102558.69;5047763;28;20675;-87
2023/02/13 11:47:54;;;;;;;7.80;6.30;;;;;;;18.26;nan;102546.97;5058949;28;20048;-87
2023/02/13 11:50:24;;;;;;;8.48;6.90;;;;;;;17.53;nan;102554.97;5051786;28;20402;-86
2023/02/13 11:53:02;;;;;;;8.75;6.90;;;;;;;16.92;nan;102548.28;5048749;28;20126;-88
2023/02/13 11:55:41;;;;;;;6.97;5.75;;;;;;;16.41;nan;102549.44;5050382;28;20037;-87
2023/02/13 11:58:09;;;;;;;9.98;7.22;;;;;;;15.79;nan;102546.97;5039635;28;20042;-87
2023/02/13 12:00:38;;;;;;;8.48;6.63;;;;;;;15.37;nan;102549.72;5050429;28;20040;-87
2023/02/13 12:03:25;;;;;;;9.57;7.25;;;;;;;14.93;nan;102545.59;5046150;28;20037;-86
2023/02/13 12:06:02;;;;;;;11.63;8.23;;;;;;;14.67;nan;102547.78;5048858;28;20089;-86
2023/02/13 12:08:29;;;;;;;12.13;8.00;;;;;;;14.15;nan;102535.13;5054782;28;20120;-87
2023/02/13 12:10:57;;;;;;;11.90;7.95;;;;;;;13.90;nan;102538.97;5053637;28;20054;-86
2023/02/13 12:13:34;;;;;;;9.65;7.35;;;;;;;13.53;nan;102541.06;5054142;28;20159;-86
2023/02/13 12:16:12;;;;;;;9.95;7.70;;;;;;;13.27;nan;102546.59;5055658;28;20126;-87
2023/02/13 12:18:47;;;;;;;10.32;8.00;;;;;;;13.04;nan;102539.53;5042835;28;20038;-86
2023/02/13 12:21:13;;;;;;;10.73;6.97;;;;;;;12.80;nan;102529.88;5054961;28;20037;-87
2023/02/13 12:24:07;;;;;;;10.20;7.60;;;;;;;12.60;nan;102530.53;5043877;28;20194;-86
2023/02/13 12:26:47;;;;;;;12.13;7.75;;;;;;;12.45;nan;102532.53;5063632;28;20268;-87
2023/02/13 12:29:24;;;;;;;12.18;8.98;;;;;;;12.36;nan;102531.41;5057238;28;20041;-86
2023/02/13 12:32:08;;;;;;;11.75;8.68;;;;;;;12.04;nan;102520.53;5047096;28;20043;-86
2023/02/13 12:34:55;;;;;;;13.10;8.95;;;;;;;11.97;nan;102527.25;5053297;28;20037;-85
2023/02/13 12:37:54;;;;;;;10.35;7.20;;;;;;;11.86;nan;102518.22;5057574;28;20044;-86
2023/02/13 12:40:40;;;;;;;10.18;7.20;;;;;;;11.91;nan;102517.91;5046492;28;20453;-87
2023/02/13 12:43:33;;;;;;;10.70;7.78;;;;;;;11.83;nan;102520.25;5039918;28;20057;-85
2023/02/13 12:46:29;;;;;;;13.10;8.30;;;;;;;11.60;nan;102513.94;5068352;28;20025;-86
2023/02/13 12:49:46;;;;;;;12.65;7.97;;;;;;;11.53;nan;102510.03;5054500;28;20078;-86
2023/02/13 12:52:42;;;;;;;11.75;8.18;;;;;;;11.34;nan;102499.91;5033444;28;20064;-87
2023/02/13 12:55:34;;;;;;;8.60;6.80;;;;;;;11.32;nan;102502.69;5054761;28;20041;-87
2023/02/13 12:58:09;;;;;;;11.55;8.63;;;;;;;11.23;nan;102500.66;5052899;28;20037;-86
2023/02/13 13:00:48;;;;;;;10.63;8.20;;;;;;;11.20;nan;102495.56;5049249;28;20037;-87
2023/02/13 13:03:22;;;;;;;12.88;8.77;;;;;;;11.15;nan;102493.25;5051121;28;20044;-86
2023/02/13 13:06:04;;;;;;;11.45;8.00;;;;;;;11.04;nan;102486.06;5057075;28;20033;-86
2023/02/13 13:08:47;;;;;;;11.25;7.85;;;;;;;11.10;nan;102490.06;5045537;28;20037;-85
2023/02/13 13:11:38;;;;;;;9.75;6.88;;;;;;;11.17;nan;102488.69;5050161;28;20128;-86
2023/02/13 13:14:11;;;;;;;13.23;8.83;;;;;;;11.12;nan;102487.31;5046235;28;20120;-86
2023/02/13 13:16:37;;;;;;;11.63;7.93;;;;;;;11.18;nan;102486.91;5055931;28;20052;-86
2023/02/13 13:19:27;;;;;;;12.95;8.65;;;;;;;11.21;nan;102481.38;5048475;28;20041;-86
2023/02/13 13:22:01;;;;;;;11.38;7.75;;;;;;;11.21;nan;102484.88;5041004;28;20056;-87
2023/02/13 13:24:49;;;;;;;10.43;7.22;;;;;;;11.21;nan;102476.09;5046720;28;20052;-87
2023/02/13 13:27:23;;;;;;;10.35;7.07;;;;;;;11.22;nan;102469.81;5039755;28;20044;-86
2023/02/13 13:30:02;;;;;;;8.43;6.00;;;;;;;11.21;nan;102466.34;5046456;28;20044;-85
2023/02/13 13:32:29;;;;;;;13.15;8.80;;;;;;;11.16;nan;102468.47;5036910;28;20045;-86
2023/02/13 13:34:56;;;;;;;11.00;8.00;;;;;;;11.18;nan;102465.72;5039406;28;20037;-87
2023/02/13 13:37:36;;;;;;;9.00;6.63;;;;;;;11.23;nan;102461.78;5055590;28;20276;-87
2023/02/13 13:40:23;;;;;;;11.18;8.07;;;;;;;11.16;nan;102464.97;5047184;28;20041;-87
2023/02/13 13:43:20;;;;;;;10.80;7.10;;;;;;;11.29;nan;102457.00;5051662;28;20037;-87
2023/02/13 13:46:06;;;;;;;9.73;6.47;;;;;;;11.35;nan;102459.22;5047654;28;20037;-86
2023/02/13 13:48:49;;;;;;;8.68;6.90;;;;;;;11.34;nan;102453.06;5055881;28;20452;-87